<?xml version="1.0" encoding="UTF-8" standalone="no" ?>
<gpx xmlns="http://www.topografix.com/GPX/1/1" xmlns:xsi="http://www.w3.org/2001/XMLSchema-instance" xsi:schemaLocation="http://www.topografix.com/GPX/1/1 http://www.topografix.com/GPX/1/1/gpx.xsd" version="1.1" creator="VisuGPX - https://www.visugpx.com">
  <metadata>
    <name>2023-06-22-46-MONTAMEL LAFAURIE</name>
    <desc><![CDATA[circuit de 12km sans difficulté, trois ruisseaux vous accompagneront sur ce parcours, fontaine, lavoir et belles maisons à découvrir ]]></desc>
  </metadata>
  <trk>
    <name><![CDATA[MONTAMEL LAFAURIE ROBERT]]></name>
    <extensions>
      <line xmlns="http://www.topografix.com/GPX/gpx_style/0/2">
        <color>0000FF</color>
        <width>4</width>
      </line>
    </extensions>
    <trkseg>
      <trkpt lat="44.60737" lon="1.44987">
        <ele>375.53</ele>
        <time>2020-09-28T12:02:56Z</time>
      </trkpt>
      <trkpt lat="44.60738" lon="1.45014">
        <ele>376.01</ele>
        <time>2020-09-28T12:03:52Z</time>
      </trkpt>
      <trkpt lat="44.60735" lon="1.45006">
        <ele>375.05</ele>
        <time>2020-09-28T12:04:38Z</time>
      </trkpt>
      <trkpt lat="44.60735" lon="1.45029">
        <ele>375.05</ele>
        <time>2020-09-28T12:05:32Z</time>
      </trkpt>
      <trkpt lat="44.60725" lon="1.45056">
        <ele>373.61</ele>
        <time>2020-09-28T12:05:53Z</time>
      </trkpt>
      <trkpt lat="44.60713" lon="1.45084">
        <ele>372.65</ele>
        <time>2020-09-28T12:06:13Z</time>
      </trkpt>
      <trkpt lat="44.60706" lon="1.45109">
        <ele>371.69</ele>
        <time>2020-09-28T12:06:31Z</time>
      </trkpt>
      <trkpt lat="44.60701" lon="1.45136">
        <ele>370.73</ele>
        <time>2020-09-28T12:06:49Z</time>
      </trkpt>
      <trkpt lat="44.60698" lon="1.45164">
        <ele>369.76</ele>
        <time>2020-09-28T12:07:07Z</time>
      </trkpt>
      <trkpt lat="44.60692" lon="1.4519">
        <ele>369.28</ele>
        <time>2020-09-28T12:07:25Z</time>
      </trkpt>
      <trkpt lat="44.60684" lon="1.45224">
        <ele>367.36</ele>
        <time>2020-09-28T12:07:48Z</time>
      </trkpt>
      <trkpt lat="44.60675" lon="1.45254">
        <ele>365.92</ele>
        <time>2020-09-28T12:08:08Z</time>
      </trkpt>
      <trkpt lat="44.60664" lon="1.45282">
        <ele>364</ele>
        <time>2020-09-28T12:08:28Z</time>
      </trkpt>
      <trkpt lat="44.60642" lon="1.45304">
        <ele>361.59</ele>
        <time>2020-09-28T12:08:50Z</time>
      </trkpt>
      <trkpt lat="44.60623" lon="1.45314">
        <ele>360.63</ele>
        <time>2020-09-28T12:09:09Z</time>
      </trkpt>
      <trkpt lat="44.60604" lon="1.4533">
        <ele>359.19</ele>
        <time>2020-09-28T12:09:29Z</time>
      </trkpt>
      <trkpt lat="44.6059" lon="1.45352">
        <ele>358.23</ele>
        <time>2020-09-28T12:09:46Z</time>
      </trkpt>
      <trkpt lat="44.6058" lon="1.45374">
        <ele>356.79</ele>
        <time>2020-09-28T12:10:01Z</time>
      </trkpt>
      <trkpt lat="44.6057" lon="1.45394">
        <ele>356.79</ele>
        <time>2020-09-28T12:10:16Z</time>
      </trkpt>
      <trkpt lat="44.60555" lon="1.45416">
        <ele>355.34</ele>
        <time>2020-09-28T12:10:35Z</time>
      </trkpt>
      <trkpt lat="44.60541" lon="1.45435">
        <ele>354.38</ele>
        <time>2020-09-28T12:10:50Z</time>
      </trkpt>
      <trkpt lat="44.60528" lon="1.45451">
        <ele>353.42</ele>
        <time>2020-09-28T12:11:13Z</time>
      </trkpt>
      <trkpt lat="44.60514" lon="1.45472">
        <ele>352.46</ele>
        <time>2020-09-28T12:11:30Z</time>
      </trkpt>
      <trkpt lat="44.605" lon="1.45487">
        <ele>351.5</ele>
        <time>2020-09-28T12:11:43Z</time>
      </trkpt>
      <trkpt lat="44.60483" lon="1.45513">
        <ele>350.06</ele>
        <time>2020-09-28T12:12:03Z</time>
      </trkpt>
      <trkpt lat="44.60471" lon="1.45528">
        <ele>349.58</ele>
        <time>2020-09-28T12:12:13Z</time>
      </trkpt>
      <trkpt lat="44.60455" lon="1.45545">
        <ele>348.62</ele>
        <time>2020-09-28T12:12:33Z</time>
      </trkpt>
      <trkpt lat="44.6044" lon="1.45566">
        <ele>348.13</ele>
        <time>2020-09-28T12:13:04Z</time>
      </trkpt>
      <trkpt lat="44.6042" lon="1.45572">
        <ele>346.69</ele>
        <time>2020-09-28T12:13:20Z</time>
      </trkpt>
      <trkpt lat="44.60401" lon="1.45571">
        <ele>344.29</ele>
        <time>2020-09-28T12:13:36Z</time>
      </trkpt>
      <trkpt lat="44.60379" lon="1.45573">
        <ele>342.37</ele>
        <time>2020-09-28T12:13:54Z</time>
      </trkpt>
      <trkpt lat="44.60358" lon="1.45581">
        <ele>339.48</ele>
        <time>2020-09-28T12:14:26Z</time>
      </trkpt>
      <trkpt lat="44.6034" lon="1.45601">
        <ele>337.08</ele>
        <time>2020-09-28T12:14:49Z</time>
      </trkpt>
      <trkpt lat="44.60323" lon="1.45617">
        <ele>335.64</ele>
        <time>2020-09-28T12:15:04Z</time>
      </trkpt>
      <trkpt lat="44.60303" lon="1.45627">
        <ele>333.23</ele>
        <time>2020-09-28T12:15:18Z</time>
      </trkpt>
      <trkpt lat="44.60284" lon="1.45633">
        <ele>331.79</ele>
        <time>2020-09-28T12:15:31Z</time>
      </trkpt>
      <trkpt lat="44.60264" lon="1.45638">
        <ele>328.91</ele>
        <time>2020-09-28T12:15:46Z</time>
      </trkpt>
      <trkpt lat="44.60243" lon="1.45652">
        <ele>325.06</ele>
        <time>2020-09-28T12:16:05Z</time>
      </trkpt>
      <trkpt lat="44.60231" lon="1.45679">
        <ele>322.18</ele>
        <time>2020-09-28T12:16:22Z</time>
      </trkpt>
      <trkpt lat="44.60235" lon="1.4571">
        <ele>319.3</ele>
        <time>2020-09-28T12:16:42Z</time>
      </trkpt>
      <trkpt lat="44.60255" lon="1.45729">
        <ele>318.81</ele>
        <time>2020-09-28T12:17:05Z</time>
      </trkpt>
      <trkpt lat="44.60288" lon="1.4574">
        <ele>320.26</ele>
        <time>2020-09-28T12:17:29Z</time>
      </trkpt>
      <trkpt lat="44.60313" lon="1.45727">
        <ele>320.74</ele>
        <time>2020-09-28T12:17:53Z</time>
      </trkpt>
      <trkpt lat="44.60368" lon="1.45703">
        <ele>314.97</ele>
        <time>2020-09-28T12:18:41Z</time>
      </trkpt>
      <trkpt lat="44.60392" lon="1.45689">
        <ele>319</ele>
      </trkpt>
      <trkpt lat="44.60414" lon="1.45709">
        <ele>321.5</ele>
      </trkpt>
      <trkpt lat="44.60423" lon="1.45795">
        <ele>319.3</ele>
        <time>2020-09-28T12:23:34Z</time>
      </trkpt>
      <trkpt lat="44.6042" lon="1.45819">
        <ele>315.3</ele>
      </trkpt>
      <trkpt lat="44.60438" lon="1.45824">
        <ele>321.7</ele>
        <time>2020-09-28T12:24:11Z</time>
      </trkpt>
      <trkpt lat="44.60468" lon="1.45835">
        <ele>326.4</ele>
        <time>2020-09-28T12:24:56Z</time>
      </trkpt>
      <trkpt lat="44.60477" lon="1.45859">
        <ele>322.18</ele>
        <time>2020-09-28T12:25:21Z</time>
      </trkpt>
      <trkpt lat="44.60495" lon="1.45886">
        <ele>321.7</ele>
        <time>2020-09-28T12:25:45Z</time>
      </trkpt>
      <trkpt lat="44.60512" lon="1.45906">
        <ele>319.78</ele>
        <time>2020-09-28T12:26:08Z</time>
      </trkpt>
      <trkpt lat="44.60535" lon="1.45921">
        <ele>315.93</ele>
        <time>2020-09-28T12:26:31Z</time>
      </trkpt>
      <trkpt lat="44.60559" lon="1.45931">
        <ele>313.05</ele>
        <time>2020-09-28T12:26:55Z</time>
      </trkpt>
      <trkpt lat="44.60578" lon="1.4594">
        <ele>310.64</ele>
        <time>2020-09-28T12:27:14Z</time>
      </trkpt>
      <trkpt lat="44.60598" lon="1.45956">
        <ele>306.32</ele>
        <time>2020-09-28T12:27:38Z</time>
      </trkpt>
      <trkpt lat="44.60619" lon="1.45968">
        <ele>303.91</ele>
        <time>2020-09-28T12:27:57Z</time>
      </trkpt>
      <trkpt lat="44.60637" lon="1.45985">
        <ele>300.55</ele>
        <time>2020-09-28T12:28:19Z</time>
      </trkpt>
      <trkpt lat="44.60655" lon="1.46001">
        <ele>298.63</ele>
        <time>2020-09-28T12:28:38Z</time>
      </trkpt>
      <trkpt lat="44.60671" lon="1.46021">
        <ele>294.3</ele>
        <time>2020-09-28T12:29:05Z</time>
      </trkpt>
      <trkpt lat="44.60691" lon="1.46031">
        <ele>293.82</ele>
        <time>2020-09-28T12:29:30Z</time>
      </trkpt>
      <trkpt lat="44.6071" lon="1.46049">
        <ele>293.82</ele>
        <time>2020-09-28T12:29:50Z</time>
      </trkpt>
      <trkpt lat="44.60733" lon="1.46065">
        <ele>292.38</ele>
        <time>2020-09-28T12:30:11Z</time>
      </trkpt>
      <trkpt lat="44.60755" lon="1.46084">
        <ele>292.38</ele>
        <time>2020-09-28T12:30:32Z</time>
      </trkpt>
      <trkpt lat="44.60773" lon="1.46102">
        <ele>291.9</ele>
        <time>2020-09-28T12:30:52Z</time>
      </trkpt>
      <trkpt lat="44.60794" lon="1.46118">
        <ele>291.42</ele>
        <time>2020-09-28T12:31:10Z</time>
      </trkpt>
      <trkpt lat="44.60805" lon="1.46145">
        <ele>291.42</ele>
        <time>2020-09-28T12:31:27Z</time>
      </trkpt>
      <trkpt lat="44.60813" lon="1.46171">
        <ele>292.38</ele>
        <time>2020-09-28T12:31:44Z</time>
      </trkpt>
      <trkpt lat="44.60825" lon="1.46197">
        <ele>293.82</ele>
        <time>2020-09-28T12:32:03Z</time>
      </trkpt>
      <trkpt lat="44.60835" lon="1.46221">
        <ele>294.3</ele>
        <time>2020-09-28T12:32:21Z</time>
      </trkpt>
      <trkpt lat="44.60843" lon="1.46248">
        <ele>294.3</ele>
        <time>2020-09-28T12:32:37Z</time>
      </trkpt>
      <trkpt lat="44.60849" lon="1.46274">
        <ele>294.3</ele>
        <time>2020-09-28T12:32:53Z</time>
      </trkpt>
      <trkpt lat="44.60856" lon="1.46303">
        <ele>295.26</ele>
        <time>2020-09-28T12:33:11Z</time>
      </trkpt>
      <trkpt lat="44.60864" lon="1.46329">
        <ele>295.74</ele>
        <time>2020-09-28T12:33:28Z</time>
      </trkpt>
      <trkpt lat="44.60876" lon="1.46354">
        <ele>296.22</ele>
        <time>2020-09-28T12:33:45Z</time>
      </trkpt>
      <trkpt lat="44.60888" lon="1.46377">
        <ele>297.18</ele>
        <time>2020-09-28T12:34:03Z</time>
      </trkpt>
      <trkpt lat="44.60902" lon="1.46396">
        <ele>297.18</ele>
        <time>2020-09-28T12:34:20Z</time>
      </trkpt>
      <trkpt lat="44.60919" lon="1.46413">
        <ele>297.18</ele>
        <time>2020-09-28T12:34:36Z</time>
      </trkpt>
      <trkpt lat="44.60935" lon="1.46431">
        <ele>297.18</ele>
        <time>2020-09-28T12:34:53Z</time>
      </trkpt>
      <trkpt lat="44.60953" lon="1.46449">
        <ele>296.7</ele>
        <time>2020-09-28T12:35:12Z</time>
      </trkpt>
      <trkpt lat="44.60971" lon="1.4647">
        <ele>297.18</ele>
        <time>2020-09-28T12:35:31Z</time>
      </trkpt>
      <trkpt lat="44.60989" lon="1.46492">
        <ele>298.15</ele>
        <time>2020-09-28T12:35:51Z</time>
      </trkpt>
      <trkpt lat="44.61003" lon="1.46519">
        <ele>298.63</ele>
        <time>2020-09-28T12:36:11Z</time>
      </trkpt>
      <trkpt lat="44.61017" lon="1.46545">
        <ele>299.59</ele>
        <time>2020-09-28T12:36:30Z</time>
      </trkpt>
      <trkpt lat="44.61028" lon="1.46576">
        <ele>300.07</ele>
        <time>2020-09-28T12:36:51Z</time>
      </trkpt>
      <trkpt lat="44.6104" lon="1.46608">
        <ele>299.59</ele>
        <time>2020-09-28T12:37:12Z</time>
      </trkpt>
      <trkpt lat="44.61052" lon="1.46642">
        <ele>301.51</ele>
        <time>2020-09-28T12:37:35Z</time>
      </trkpt>
      <trkpt lat="44.6106" lon="1.46679">
        <ele>301.99</ele>
        <time>2020-09-28T12:37:59Z</time>
      </trkpt>
      <trkpt lat="44.61066" lon="1.46721">
        <ele>301.03</ele>
        <time>2020-09-28T12:38:21Z</time>
      </trkpt>
      <trkpt lat="44.61066" lon="1.46759">
        <ele>300.07</ele>
        <time>2020-09-28T12:38:42Z</time>
      </trkpt>
      <trkpt lat="44.61066" lon="1.46791">
        <ele>300.07</ele>
        <time>2020-09-28T12:39:02Z</time>
      </trkpt>
      <trkpt lat="44.61072" lon="1.46826">
        <ele>299.59</ele>
        <time>2020-09-28T12:39:24Z</time>
      </trkpt>
      <trkpt lat="44.61086" lon="1.46859">
        <ele>301.51</ele>
        <time>2020-09-28T12:39:45Z</time>
      </trkpt>
      <trkpt lat="44.61099" lon="1.46888">
        <ele>302.47</ele>
        <time>2020-09-28T12:40:08Z</time>
      </trkpt>
      <trkpt lat="44.6111" lon="1.46923">
        <ele>302.95</ele>
        <time>2020-09-28T12:40:30Z</time>
      </trkpt>
      <trkpt lat="44.61118" lon="1.46956">
        <ele>303.43</ele>
        <time>2020-09-28T12:40:49Z</time>
      </trkpt>
      <trkpt lat="44.61126" lon="1.4699">
        <ele>303.91</ele>
        <time>2020-09-28T12:41:09Z</time>
      </trkpt>
      <trkpt lat="44.61135" lon="1.47021">
        <ele>305.36</ele>
        <time>2020-09-28T12:41:30Z</time>
      </trkpt>
      <trkpt lat="44.61142" lon="1.47056">
        <ele>305.36</ele>
        <time>2020-09-28T12:41:50Z</time>
      </trkpt>
      <trkpt lat="44.61154" lon="1.47083">
        <ele>303.43</ele>
        <time>2020-09-28T12:42:07Z</time>
      </trkpt>
      <trkpt lat="44.6117" lon="1.47102">
        <ele>303.43</ele>
        <time>2020-09-28T12:42:25Z</time>
      </trkpt>
      <trkpt lat="44.61191" lon="1.47116">
        <ele>303.43</ele>
        <time>2020-09-28T12:42:44Z</time>
      </trkpt>
      <trkpt lat="44.61213" lon="1.47127">
        <ele>304.39</ele>
        <time>2020-09-28T12:43:05Z</time>
      </trkpt>
      <trkpt lat="44.61236" lon="1.47141">
        <ele>304.88</ele>
        <time>2020-09-28T12:43:23Z</time>
      </trkpt>
      <trkpt lat="44.61257" lon="1.47157">
        <ele>305.36</ele>
        <time>2020-09-28T12:43:44Z</time>
      </trkpt>
      <trkpt lat="44.61279" lon="1.47182">
        <ele>305.84</ele>
        <time>2020-09-28T12:44:06Z</time>
      </trkpt>
      <trkpt lat="44.61283" lon="1.47214">
        <ele>306.32</ele>
        <time>2020-09-28T12:44:26Z</time>
      </trkpt>
      <trkpt lat="44.61289" lon="1.47249">
        <ele>306.8</ele>
        <time>2020-09-28T12:44:47Z</time>
      </trkpt>
      <trkpt lat="44.61299" lon="1.47283">
        <ele>307.76</ele>
        <time>2020-09-28T12:45:09Z</time>
      </trkpt>
      <trkpt lat="44.61308" lon="1.47315">
        <ele>309.2</ele>
        <time>2020-09-28T12:45:35Z</time>
      </trkpt>
      <trkpt lat="44.6132" lon="1.47344">
        <ele>309.2</ele>
        <time>2020-09-28T12:46:02Z</time>
      </trkpt>
      <trkpt lat="44.61336" lon="1.47368">
        <ele>309.68</ele>
        <time>2020-09-28T12:46:24Z</time>
      </trkpt>
      <trkpt lat="44.61347" lon="1.47402">
        <ele>309.68</ele>
        <time>2020-09-28T12:46:49Z</time>
      </trkpt>
      <trkpt lat="44.61353" lon="1.4743">
        <ele>309.68</ele>
        <time>2020-09-28T12:47:07Z</time>
      </trkpt>
      <trkpt lat="44.61359" lon="1.47457">
        <ele>309.68</ele>
        <time>2020-09-28T12:47:24Z</time>
      </trkpt>
      <trkpt lat="44.61359" lon="1.47492">
        <ele>310.64</ele>
        <time>2020-09-28T12:47:49Z</time>
      </trkpt>
      <trkpt lat="44.61346" lon="1.47523">
        <ele>311.12</ele>
        <time>2020-09-28T12:48:11Z</time>
      </trkpt>
      <trkpt lat="44.61332" lon="1.47553">
        <ele>311.6</ele>
        <time>2020-09-28T12:48:33Z</time>
      </trkpt>
      <trkpt lat="44.61315" lon="1.47584">
        <ele>312.09</ele>
        <time>2020-09-28T12:48:56Z</time>
      </trkpt>
      <trkpt lat="44.61304" lon="1.47615">
        <ele>312.57</ele>
        <time>2020-09-28T12:49:16Z</time>
      </trkpt>
      <trkpt lat="44.61292" lon="1.47641">
        <ele>313.05</ele>
        <time>2020-09-28T12:50:01Z</time>
      </trkpt>
      <trkpt lat="44.61281" lon="1.47668">
        <ele>313.53</ele>
        <time>2020-09-28T12:50:20Z</time>
      </trkpt>
      <trkpt lat="44.61267" lon="1.47696">
        <ele>314.49</ele>
        <time>2020-09-28T12:50:39Z</time>
      </trkpt>
      <trkpt lat="44.61254" lon="1.4772">
        <ele>315.45</ele>
        <time>2020-09-28T12:50:57Z</time>
      </trkpt>
      <trkpt lat="44.61241" lon="1.47744">
        <ele>316.41</ele>
        <time>2020-09-28T12:51:15Z</time>
      </trkpt>
      <trkpt lat="44.61233" lon="1.47773">
        <ele>316.89</ele>
        <time>2020-09-28T12:51:35Z</time>
      </trkpt>
      <trkpt lat="44.61235" lon="1.47807">
        <ele>317.85</ele>
        <time>2020-09-28T12:51:56Z</time>
      </trkpt>
      <trkpt lat="44.61237" lon="1.47839">
        <ele>318.33</ele>
        <time>2020-09-28T12:52:16Z</time>
      </trkpt>
      <trkpt lat="44.61234" lon="1.47865">
        <ele>319.78</ele>
        <time>2020-09-28T12:52:42Z</time>
      </trkpt>
      <trkpt lat="44.61237" lon="1.47867">
        <ele>319.3</ele>
        <time>2020-09-28T12:54:27Z</time>
      </trkpt>
      <trkpt lat="44.61236" lon="1.47899">
        <ele>320.74</ele>
        <time>2020-09-28T12:54:48Z</time>
      </trkpt>
      <trkpt lat="44.61233" lon="1.47931">
        <ele>321.7</ele>
        <time>2020-09-28T12:55:08Z</time>
      </trkpt>
      <trkpt lat="44.61226" lon="1.47965">
        <ele>323.14</ele>
        <time>2020-09-28T12:55:28Z</time>
      </trkpt>
      <trkpt lat="44.61215" lon="1.4799">
        <ele>324.1</ele>
        <time>2020-09-28T12:55:47Z</time>
      </trkpt>
      <trkpt lat="44.61204" lon="1.48018">
        <ele>325.54</ele>
        <time>2020-09-28T12:56:07Z</time>
      </trkpt>
      <trkpt lat="44.61193" lon="1.48049">
        <ele>326.5</ele>
        <time>2020-09-28T12:56:27Z</time>
      </trkpt>
      <trkpt lat="44.61185" lon="1.48076">
        <ele>327.47</ele>
        <time>2020-09-28T12:56:47Z</time>
      </trkpt>
      <trkpt lat="44.61176" lon="1.48108">
        <ele>328.43</ele>
        <time>2020-09-28T12:57:07Z</time>
      </trkpt>
      <trkpt lat="44.6117" lon="1.48143">
        <ele>328.91</ele>
        <time>2020-09-28T12:57:30Z</time>
      </trkpt>
      <trkpt lat="44.61166" lon="1.48176">
        <ele>329.87</ele>
        <time>2020-09-28T12:57:53Z</time>
      </trkpt>
      <trkpt lat="44.61162" lon="1.48211">
        <ele>330.83</ele>
        <time>2020-09-28T12:58:16Z</time>
      </trkpt>
      <trkpt lat="44.61158" lon="1.48245">
        <ele>331.79</ele>
        <time>2020-09-28T12:58:36Z</time>
      </trkpt>
      <trkpt lat="44.61162" lon="1.48276">
        <ele>332.75</ele>
        <time>2020-09-28T12:58:54Z</time>
      </trkpt>
      <trkpt lat="44.61169" lon="1.48305">
        <ele>333.71</ele>
        <time>2020-09-28T12:59:13Z</time>
      </trkpt>
      <trkpt lat="44.61176" lon="1.48333">
        <ele>334.68</ele>
        <time>2020-09-28T12:59:31Z</time>
      </trkpt>
      <trkpt lat="44.6118" lon="1.48361">
        <ele>335.16</ele>
        <time>2020-09-28T12:59:49Z</time>
      </trkpt>
      <trkpt lat="44.61186" lon="1.48391">
        <ele>336.12</ele>
        <time>2020-09-28T13:00:08Z</time>
      </trkpt>
      <trkpt lat="44.61191" lon="1.48421">
        <ele>338.04</ele>
        <time>2020-09-28T13:00:27Z</time>
      </trkpt>
      <trkpt lat="44.61198" lon="1.48451">
        <ele>339</ele>
        <time>2020-09-28T13:00:45Z</time>
      </trkpt>
      <trkpt lat="44.61204" lon="1.48479">
        <ele>339.96</ele>
        <time>2020-09-28T13:01:03Z</time>
      </trkpt>
      <trkpt lat="44.61208" lon="1.48509">
        <ele>340.92</ele>
        <time>2020-09-28T13:01:21Z</time>
      </trkpt>
      <trkpt lat="44.61214" lon="1.48545">
        <ele>340.92</ele>
        <time>2020-09-28T13:01:40Z</time>
      </trkpt>
      <trkpt lat="44.61216" lon="1.48576">
        <ele>341.89</ele>
        <time>2020-09-28T13:01:59Z</time>
      </trkpt>
      <trkpt lat="44.61228" lon="1.48598">
        <ele>342.37</ele>
        <time>2020-09-28T13:02:30Z</time>
      </trkpt>
      <trkpt lat="44.61209" lon="1.48595">
        <ele>342.85</ele>
        <time>2020-09-28T13:04:38Z</time>
      </trkpt>
      <trkpt lat="44.61189" lon="1.48609">
        <ele>343.33</ele>
        <time>2020-09-28T13:05:00Z</time>
      </trkpt>
      <trkpt lat="44.61171" lon="1.48601">
        <ele>344.77</ele>
        <time>2020-09-28T13:05:23Z</time>
      </trkpt>
      <trkpt lat="44.61159" lon="1.48574">
        <ele>346.69</ele>
        <time>2020-09-28T13:05:44Z</time>
      </trkpt>
      <trkpt lat="44.61145" lon="1.48549">
        <ele>348.62</ele>
        <time>2020-09-28T13:06:05Z</time>
      </trkpt>
      <trkpt lat="44.61134" lon="1.48518">
        <ele>351.02</ele>
        <time>2020-09-28T13:06:29Z</time>
      </trkpt>
      <trkpt lat="44.61113" lon="1.48492">
        <ele>354.86</ele>
        <time>2020-09-28T13:07:00Z</time>
      </trkpt>
      <trkpt lat="44.611" lon="1.48517">
        <ele>359.67</ele>
        <time>2020-09-28T13:07:36Z</time>
      </trkpt>
      <trkpt lat="44.61092" lon="1.48559">
        <ele>362.55</ele>
        <time>2020-09-28T13:08:08Z</time>
      </trkpt>
      <trkpt lat="44.61074" lon="1.48593">
        <ele>365.92</ele>
        <time>2020-09-28T13:08:44Z</time>
      </trkpt>
      <trkpt lat="44.61055" lon="1.48617">
        <ele>368.32</ele>
        <time>2020-09-28T13:09:12Z</time>
      </trkpt>
      <trkpt lat="44.61033" lon="1.48612">
        <ele>371.21</ele>
        <time>2020-09-28T13:09:36Z</time>
      </trkpt>
      <trkpt lat="44.61009" lon="1.48602">
        <ele>375.05</ele>
        <time>2020-09-28T13:10:05Z</time>
      </trkpt>
      <trkpt lat="44.60988" lon="1.48603">
        <ele>378.9</ele>
        <time>2020-09-28T13:10:33Z</time>
      </trkpt>
      <trkpt lat="44.60961" lon="1.4861">
        <ele>382.74</ele>
        <time>2020-09-28T13:11:08Z</time>
      </trkpt>
      <trkpt lat="44.60938" lon="1.48603">
        <ele>384.18</ele>
        <time>2020-09-28T13:11:32Z</time>
      </trkpt>
      <trkpt lat="44.60922" lon="1.48583">
        <ele>385.15</ele>
        <time>2020-09-28T13:12:04Z</time>
      </trkpt>
      <trkpt lat="44.6091" lon="1.48564">
        <ele>386.59</ele>
        <time>2020-09-28T13:12:30Z</time>
      </trkpt>
      <trkpt lat="44.60895" lon="1.48549">
        <ele>387.55</ele>
        <time>2020-09-28T13:12:52Z</time>
      </trkpt>
      <trkpt lat="44.6088" lon="1.48561">
        <ele>389.47</ele>
        <time>2020-09-28T13:13:11Z</time>
      </trkpt>
      <trkpt lat="44.6087" lon="1.48585">
        <ele>391.39</ele>
        <time>2020-09-28T13:13:34Z</time>
      </trkpt>
      <trkpt lat="44.60867" lon="1.48599">
        <ele>394.28</ele>
        <time>2020-09-28T13:14:36Z</time>
      </trkpt>
      <trkpt lat="44.60854" lon="1.48615">
        <ele>395.24</ele>
        <time>2020-09-28T13:15:06Z</time>
      </trkpt>
      <trkpt lat="44.60839" lon="1.48633">
        <ele>396.68</ele>
        <time>2020-09-28T13:15:26Z</time>
      </trkpt>
      <trkpt lat="44.60825" lon="1.48653">
        <ele>397.64</ele>
        <time>2020-09-28T13:15:47Z</time>
      </trkpt>
      <trkpt lat="44.60815" lon="1.48676">
        <ele>398.6</ele>
        <time>2020-09-28T13:16:08Z</time>
      </trkpt>
      <trkpt lat="44.60806" lon="1.487">
        <ele>400.05</ele>
        <time>2020-09-28T13:16:28Z</time>
      </trkpt>
      <trkpt lat="44.60796" lon="1.48723">
        <ele>401.97</ele>
        <time>2020-09-28T13:16:47Z</time>
      </trkpt>
      <trkpt lat="44.6078" lon="1.48742">
        <ele>403.41</ele>
        <time>2020-09-28T13:17:24Z</time>
      </trkpt>
      <trkpt lat="44.60763" lon="1.48753">
        <ele>403.89</ele>
        <time>2020-09-28T13:17:39Z</time>
      </trkpt>
      <trkpt lat="44.60746" lon="1.48764">
        <ele>404.37</ele>
        <time>2020-09-28T13:17:53Z</time>
      </trkpt>
      <trkpt lat="44.60733" lon="1.48775">
        <ele>404.37</ele>
        <time>2020-09-28T13:18:03Z</time>
      </trkpt>
      <trkpt lat="44.60718" lon="1.48784">
        <ele>404.37</ele>
        <time>2020-09-28T13:18:19Z</time>
      </trkpt>
      <trkpt lat="44.60699" lon="1.48797">
        <ele>403.41</ele>
        <time>2020-09-28T13:18:37Z</time>
      </trkpt>
      <trkpt lat="44.6068" lon="1.48808">
        <ele>402.93</ele>
        <time>2020-09-28T13:18:59Z</time>
      </trkpt>
      <trkpt lat="44.60661" lon="1.48821">
        <ele>402.93</ele>
        <time>2020-09-28T13:19:12Z</time>
      </trkpt>
      <trkpt lat="44.60642" lon="1.48837">
        <ele>401.49</ele>
        <time>2020-09-28T13:19:35Z</time>
      </trkpt>
      <trkpt lat="44.6062" lon="1.48844">
        <ele>401.01</ele>
        <time>2020-09-28T13:19:50Z</time>
      </trkpt>
      <trkpt lat="44.60598" lon="1.48833">
        <ele>401.01</ele>
        <time>2020-09-28T13:20:04Z</time>
      </trkpt>
      <trkpt lat="44.60582" lon="1.48812">
        <ele>400.53</ele>
        <time>2020-09-28T13:20:26Z</time>
      </trkpt>
      <trkpt lat="44.60568" lon="1.48788">
        <ele>398.6</ele>
        <time>2020-09-28T13:20:46Z</time>
      </trkpt>
      <trkpt lat="44.60555" lon="1.48764">
        <ele>397.64</ele>
        <time>2020-09-28T13:21:03Z</time>
      </trkpt>
      <trkpt lat="44.6054" lon="1.48742">
        <ele>395.72</ele>
        <time>2020-09-28T13:21:21Z</time>
      </trkpt>
      <trkpt lat="44.60522" lon="1.48717">
        <ele>393.8</ele>
        <time>2020-09-28T13:21:40Z</time>
      </trkpt>
      <trkpt lat="44.60508" lon="1.48692">
        <ele>392.84</ele>
        <time>2020-09-28T13:21:58Z</time>
      </trkpt>
      <trkpt lat="44.605" lon="1.48665">
        <ele>390.91</ele>
        <time>2020-09-28T13:22:16Z</time>
      </trkpt>
      <trkpt lat="44.60493" lon="1.48637">
        <ele>389.95</ele>
        <time>2020-09-28T13:22:35Z</time>
      </trkpt>
      <trkpt lat="44.60486" lon="1.48614">
        <ele>389.95</ele>
        <time>2020-09-28T13:22:44Z</time>
      </trkpt>
      <trkpt lat="44.6048" lon="1.48587">
        <ele>388.99</ele>
        <time>2020-09-28T13:23:04Z</time>
      </trkpt>
      <trkpt lat="44.60466" lon="1.48567">
        <ele>388.51</ele>
        <time>2020-09-28T13:23:13Z</time>
      </trkpt>
      <trkpt lat="44.60456" lon="1.48554">
        <ele>388.03</ele>
        <time>2020-09-28T13:23:23Z</time>
      </trkpt>
      <trkpt lat="44.60445" lon="1.48538">
        <ele>387.55</ele>
        <time>2020-09-28T13:23:36Z</time>
      </trkpt>
      <trkpt lat="44.60431" lon="1.48522">
        <ele>387.55</ele>
        <time>2020-09-28T13:23:54Z</time>
      </trkpt>
      <trkpt lat="44.60416" lon="1.48504">
        <ele>388.03</ele>
        <time>2020-09-28T13:24:11Z</time>
      </trkpt>
      <trkpt lat="44.604" lon="1.48485">
        <ele>388.03</ele>
        <time>2020-09-28T13:24:28Z</time>
      </trkpt>
      <trkpt lat="44.60376" lon="1.4847">
        <ele>387.55</ele>
        <time>2020-09-28T13:24:53Z</time>
      </trkpt>
      <trkpt lat="44.60334" lon="1.48472">
        <ele>388.99</ele>
        <time>2020-09-28T13:25:36Z</time>
      </trkpt>
      <trkpt lat="44.60297" lon="1.48492">
        <ele>388.03</ele>
        <time>2020-09-28T13:26:06Z</time>
      </trkpt>
      <trkpt lat="44.60267" lon="1.48504">
        <ele>388.03</ele>
        <time>2020-09-28T13:26:31Z</time>
      </trkpt>
      <trkpt lat="44.6024" lon="1.4851">
        <ele>387.55</ele>
        <time>2020-09-28T13:26:48Z</time>
      </trkpt>
      <trkpt lat="44.60215" lon="1.4851">
        <ele>386.59</ele>
        <time>2020-09-28T13:28:10Z</time>
      </trkpt>
      <trkpt lat="44.60188" lon="1.48511">
        <ele>386.11</ele>
        <time>2020-09-28T13:28:29Z</time>
      </trkpt>
      <trkpt lat="44.6017" lon="1.48507">
        <ele>385.63</ele>
        <time>2020-09-28T13:28:46Z</time>
      </trkpt>
      <trkpt lat="44.6015" lon="1.485">
        <ele>384.18</ele>
        <time>2020-09-28T13:29:01Z</time>
      </trkpt>
      <trkpt lat="44.60127" lon="1.48499">
        <ele>382.74</ele>
        <time>2020-09-28T13:29:18Z</time>
      </trkpt>
      <trkpt lat="44.60112" lon="1.48495">
        <ele>381.78</ele>
        <time>2020-09-28T13:29:29Z</time>
      </trkpt>
      <trkpt lat="44.60085" lon="1.48495">
        <ele>379.38</ele>
        <time>2020-09-28T13:29:51Z</time>
      </trkpt>
      <trkpt lat="44.60069" lon="1.48492">
        <ele>379.38</ele>
        <time>2020-09-28T13:30:01Z</time>
      </trkpt>
      <trkpt lat="44.60048" lon="1.48495">
        <ele>377.94</ele>
        <time>2020-09-28T13:30:22Z</time>
      </trkpt>
      <trkpt lat="44.6003" lon="1.48494">
        <ele>376.97</ele>
        <time>2020-09-28T13:30:32Z</time>
      </trkpt>
      <trkpt lat="44.60015" lon="1.48493">
        <ele>376.01</ele>
        <time>2020-09-28T13:30:46Z</time>
      </trkpt>
      <trkpt lat="44.59986" lon="1.48486">
        <ele>373.61</ele>
        <time>2020-09-28T13:31:11Z</time>
      </trkpt>
      <trkpt lat="44.59968" lon="1.48477">
        <ele>372.17</ele>
        <time>2020-09-28T13:31:23Z</time>
      </trkpt>
      <trkpt lat="44.59948" lon="1.48468">
        <ele>369.76</ele>
        <time>2020-09-28T13:31:43Z</time>
      </trkpt>
      <trkpt lat="44.59931" lon="1.48457">
        <ele>367.84</ele>
        <time>2020-09-28T13:31:53Z</time>
      </trkpt>
      <trkpt lat="44.59916" lon="1.48451">
        <ele>367.36</ele>
        <time>2020-09-28T13:32:07Z</time>
      </trkpt>
      <trkpt lat="44.59893" lon="1.48444">
        <ele>365.44</ele>
        <time>2020-09-28T13:32:31Z</time>
      </trkpt>
      <trkpt lat="44.59872" lon="1.48432">
        <ele>363.52</ele>
        <time>2020-09-28T13:32:48Z</time>
      </trkpt>
      <trkpt lat="44.59849" lon="1.48419">
        <ele>361.11</ele>
        <time>2020-09-28T13:33:10Z</time>
      </trkpt>
      <trkpt lat="44.59833" lon="1.48409">
        <ele>360.15</ele>
        <time>2020-09-28T13:33:22Z</time>
      </trkpt>
      <trkpt lat="44.59816" lon="1.48396">
        <ele>359.67</ele>
        <time>2020-09-28T13:33:38Z</time>
      </trkpt>
      <trkpt lat="44.59794" lon="1.48382">
        <ele>359.19</ele>
        <time>2020-09-28T13:33:56Z</time>
      </trkpt>
      <trkpt lat="44.59777" lon="1.48374">
        <ele>358.71</ele>
        <time>2020-09-28T13:34:11Z</time>
      </trkpt>
      <trkpt lat="44.59759" lon="1.48372">
        <ele>358.71</ele>
        <time>2020-09-28T13:34:26Z</time>
      </trkpt>
      <trkpt lat="44.5974" lon="1.48374">
        <ele>359.19</ele>
        <time>2020-09-28T13:34:42Z</time>
      </trkpt>
      <trkpt lat="44.59718" lon="1.48374">
        <ele>359.19</ele>
        <time>2020-09-28T13:34:59Z</time>
      </trkpt>
      <trkpt lat="44.59702" lon="1.48371">
        <ele>358.23</ele>
        <time>2020-09-28T13:35:09Z</time>
      </trkpt>
      <trkpt lat="44.5968" lon="1.48357">
        <ele>357.27</ele>
        <time>2020-09-28T13:35:29Z</time>
      </trkpt>
      <trkpt lat="44.59664" lon="1.48345">
        <ele>356.31</ele>
        <time>2020-09-28T13:35:47Z</time>
      </trkpt>
      <trkpt lat="44.59643" lon="1.48336">
        <ele>356.31</ele>
        <time>2020-09-28T13:35:59Z</time>
      </trkpt>
      <trkpt lat="44.59625" lon="1.48332">
        <ele>356.31</ele>
        <time>2020-09-28T13:36:15Z</time>
      </trkpt>
      <trkpt lat="44.59604" lon="1.48327">
        <ele>358.23</ele>
        <time>2020-09-28T13:36:35Z</time>
      </trkpt>
      <trkpt lat="44.59584" lon="1.48304">
        <ele>356.31</ele>
        <time>2020-09-28T13:36:53Z</time>
      </trkpt>
      <trkpt lat="44.59568" lon="1.48288">
        <ele>353.42</ele>
        <time>2020-09-28T13:37:13Z</time>
      </trkpt>
      <trkpt lat="44.59541" lon="1.4827">
        <ele>347.17</ele>
        <time>2020-09-28T13:37:44Z</time>
      </trkpt>
      <trkpt lat="44.59491" lon="1.48234">
        <ele>339.48</ele>
        <time>2020-09-28T13:38:29Z</time>
      </trkpt>
      <trkpt lat="44.59468" lon="1.48213">
        <ele>335.16</ele>
        <time>2020-09-28T13:38:52Z</time>
      </trkpt>
      <trkpt lat="44.59446" lon="1.48195">
        <ele>331.79</ele>
        <time>2020-09-28T13:39:16Z</time>
      </trkpt>
      <trkpt lat="44.59424" lon="1.48165">
        <ele>327.95</ele>
        <time>2020-09-28T13:39:43Z</time>
      </trkpt>
      <trkpt lat="44.59401" lon="1.48147">
        <ele>326.5</ele>
        <time>2020-09-28T13:40:07Z</time>
      </trkpt>
      <trkpt lat="44.59384" lon="1.48123">
        <ele>323.14</ele>
        <time>2020-09-28T13:40:29Z</time>
      </trkpt>
      <trkpt lat="44.59368" lon="1.48106">
        <ele>320.26</ele>
        <time>2020-09-28T13:40:44Z</time>
      </trkpt>
      <trkpt lat="44.59349" lon="1.48087">
        <ele>316.89</ele>
        <time>2020-09-28T13:41:06Z</time>
      </trkpt>
      <trkpt lat="44.59323" lon="1.48066">
        <ele>313.05</ele>
        <time>2020-09-28T13:41:31Z</time>
      </trkpt>
      <trkpt lat="44.5931" lon="1.48052">
        <ele>311.12</ele>
        <time>2020-09-28T13:41:43Z</time>
      </trkpt>
      <trkpt lat="44.5929" lon="1.48034">
        <ele>308.72</ele>
        <time>2020-09-28T13:42:03Z</time>
      </trkpt>
      <trkpt lat="44.59271" lon="1.48014">
        <ele>305.84</ele>
        <time>2020-09-28T13:42:25Z</time>
      </trkpt>
      <trkpt lat="44.5925" lon="1.47994">
        <ele>302.47</ele>
        <time>2020-09-28T13:42:46Z</time>
      </trkpt>
      <trkpt lat="44.59229" lon="1.47971">
        <ele>298.15</ele>
        <time>2020-09-28T13:43:08Z</time>
      </trkpt>
      <trkpt lat="44.59213" lon="1.47954">
        <ele>296.22</ele>
        <time>2020-09-28T13:43:23Z</time>
      </trkpt>
      <trkpt lat="44.59203" lon="1.47932">
        <ele>293.82</ele>
        <time>2020-09-28T13:43:35Z</time>
      </trkpt>
      <trkpt lat="44.592" lon="1.47908">
        <ele>292.38</ele>
        <time>2020-09-28T13:43:51Z</time>
      </trkpt>
      <trkpt lat="44.59206" lon="1.47888">
        <ele>292.38</ele>
        <time>2020-09-28T13:44:05Z</time>
      </trkpt>
      <trkpt lat="44.59194" lon="1.47864">
        <ele>291.9</ele>
        <time>2020-09-28T13:44:22Z</time>
      </trkpt>
      <trkpt lat="44.59183" lon="1.47838">
        <ele>291.42</ele>
        <time>2020-09-28T13:44:43Z</time>
      </trkpt>
      <trkpt lat="44.59175" lon="1.47813">
        <ele>291.42</ele>
        <time>2020-09-28T13:45:02Z</time>
      </trkpt>
      <trkpt lat="44.59164" lon="1.47788">
        <ele>292.86</ele>
        <time>2020-09-28T13:45:21Z</time>
      </trkpt>
      <trkpt lat="44.59152" lon="1.47763">
        <ele>293.82</ele>
        <time>2020-09-28T13:45:39Z</time>
      </trkpt>
      <trkpt lat="44.59137" lon="1.47737">
        <ele>295.74</ele>
        <time>2020-09-28T13:46:00Z</time>
      </trkpt>
      <trkpt lat="44.59133" lon="1.4771">
        <ele>295.74</ele>
        <time>2020-09-28T13:46:25Z</time>
      </trkpt>
      <trkpt lat="44.59137" lon="1.47682">
        <ele>297.18</ele>
        <time>2020-09-28T13:46:41Z</time>
      </trkpt>
      <trkpt lat="44.59148" lon="1.4767">
        <ele>293.5</ele>
        <time>2020-09-28T13:46:58Z</time>
      </trkpt>
      <trkpt lat="44.59163" lon="1.47651">
        <ele>293.3</ele>
        <time>2020-09-28T13:47:14Z</time>
      </trkpt>
      <trkpt lat="44.59177" lon="1.47619">
        <ele>293.1</ele>
        <time>2020-09-28T13:47:33Z</time>
      </trkpt>
      <trkpt lat="44.59187" lon="1.47593">
        <ele>291.8</ele>
        <time>2020-09-28T13:47:53Z</time>
      </trkpt>
      <trkpt lat="44.59204" lon="1.47568">
        <ele>290.5</ele>
        <time>2020-09-28T13:48:13Z</time>
      </trkpt>
      <trkpt lat="44.59213" lon="1.47545">
        <ele>290.1</ele>
        <time>2020-09-28T13:48:33Z</time>
      </trkpt>
      <trkpt lat="44.59225" lon="1.47518">
        <ele>289.2</ele>
        <time>2020-09-28T13:48:56Z</time>
      </trkpt>
      <trkpt lat="44.59238" lon="1.47483">
        <ele>288.1</ele>
        <time>2020-09-28T13:49:17Z</time>
      </trkpt>
      <trkpt lat="44.59245" lon="1.4746">
        <ele>287.9</ele>
        <time>2020-09-28T13:49:36Z</time>
      </trkpt>
      <trkpt lat="44.59252" lon="1.47439">
        <ele>287.8</ele>
        <time>2020-09-28T13:49:55Z</time>
      </trkpt>
      <trkpt lat="44.59257" lon="1.47418">
        <ele>287.4</ele>
        <time>2020-09-28T13:50:14Z</time>
      </trkpt>
      <trkpt lat="44.59261" lon="1.47396">
        <ele>286.7</ele>
        <time>2020-09-28T14:01:33Z</time>
      </trkpt>
      <trkpt lat="44.59278" lon="1.47362">
        <ele>282.9</ele>
      </trkpt>
      <trkpt lat="44.59295" lon="1.47325">
        <ele>281.4</ele>
      </trkpt>
      <trkpt lat="44.59304" lon="1.473">
        <ele>279.3</ele>
      </trkpt>
      <trkpt lat="44.59308" lon="1.47265">
        <ele>278.7</ele>
      </trkpt>
      <trkpt lat="44.59312" lon="1.47228">
        <ele>277.4</ele>
      </trkpt>
      <trkpt lat="44.59315" lon="1.47207">
        <ele>277.1</ele>
      </trkpt>
      <trkpt lat="44.59339" lon="1.47183">
        <ele>275.5</ele>
      </trkpt>
      <trkpt lat="44.59311" lon="1.47134">
        <ele>277.3</ele>
      </trkpt>
      <trkpt lat="44.59288" lon="1.4708">
        <ele>280.4</ele>
        <time>2020-09-28T14:03:45Z</time>
      </trkpt>
      <trkpt lat="44.59274" lon="1.47042">
        <ele>278.3</ele>
      </trkpt>
      <trkpt lat="44.59271" lon="1.47002">
        <ele>276.8</ele>
      </trkpt>
      <trkpt lat="44.59273" lon="1.46952">
        <ele>276.1</ele>
        <time>2020-09-28T14:08:04Z</time>
      </trkpt>
      <trkpt lat="44.59273" lon="1.46916">
        <ele>273.8</ele>
      </trkpt>
      <trkpt lat="44.59258" lon="1.46875">
        <ele>275.7</ele>
      </trkpt>
      <trkpt lat="44.59241" lon="1.46809">
        <ele>274.7</ele>
        <time>2020-09-28T14:19:38Z</time>
      </trkpt>
      <trkpt lat="44.59247" lon="1.46718">
        <ele>272.5</ele>
      </trkpt>
      <trkpt lat="44.59256" lon="1.4667">
        <ele>272.7</ele>
      </trkpt>
      <trkpt lat="44.59268" lon="1.46636">
        <ele>271.2</ele>
      </trkpt>
      <trkpt lat="44.59265" lon="1.46618">
        <ele>271.4</ele>
      </trkpt>
      <trkpt lat="44.59255" lon="1.46598">
        <ele>272.6</ele>
      </trkpt>
      <trkpt lat="44.59252" lon="1.46572">
        <ele>272.9</ele>
      </trkpt>
      <trkpt lat="44.59269" lon="1.46529">
        <ele>271.3</ele>
        <time>2020-09-28T14:20:22Z</time>
      </trkpt>
      <trkpt lat="44.59267" lon="1.46483">
        <ele>269.9</ele>
      </trkpt>
      <trkpt lat="44.59241" lon="1.46423">
        <ele>267.4</ele>
        <time>2020-09-28T14:21:53Z</time>
      </trkpt>
      <trkpt lat="44.59177" lon="1.46304">
        <ele>267.3</ele>
      </trkpt>
      <trkpt lat="44.59148" lon="1.46251">
        <ele>267.2</ele>
      </trkpt>
      <trkpt lat="44.59114" lon="1.4619">
        <ele>265.9</ele>
        <time>2020-09-28T14:26:10Z</time>
      </trkpt>
      <trkpt lat="44.59093" lon="1.46079">
        <ele>264</ele>
        <time>2020-09-28T14:26:45Z</time>
      </trkpt>
      <trkpt lat="44.59062" lon="1.4597">
        <ele>261.6</ele>
        <time>2020-09-28T14:27:59Z</time>
      </trkpt>
      <trkpt lat="44.59039" lon="1.45914">
        <ele>262.5</ele>
        <time>2020-09-28T14:29:14Z</time>
      </trkpt>
      <trkpt lat="44.59024" lon="1.45861">
        <ele>261.5</ele>
        <time>2020-09-28T14:30:19Z</time>
      </trkpt>
      <trkpt lat="44.59019" lon="1.45808">
        <ele>259.9</ele>
        <time>2020-09-28T14:32:53Z</time>
      </trkpt>
      <trkpt lat="44.59013" lon="1.45774">
        <ele>260</ele>
      </trkpt>
      <trkpt lat="44.59024" lon="1.45755">
        <ele>261.14</ele>
        <time>2020-09-28T14:34:10Z</time>
      </trkpt>
      <trkpt lat="44.59042" lon="1.45757">
        <ele>260.65</ele>
        <time>2020-09-28T14:34:26Z</time>
      </trkpt>
      <trkpt lat="44.59062" lon="1.45751">
        <ele>260.65</ele>
        <time>2020-09-28T14:34:43Z</time>
      </trkpt>
      <trkpt lat="44.59083" lon="1.45744">
        <ele>260.65</ele>
        <time>2020-09-28T14:35:02Z</time>
      </trkpt>
      <trkpt lat="44.59104" lon="1.45736">
        <ele>260.17</ele>
        <time>2020-09-28T14:35:19Z</time>
      </trkpt>
      <trkpt lat="44.59116" lon="1.45717">
        <ele>260.17</ele>
        <time>2020-09-28T14:35:41Z</time>
      </trkpt>
      <trkpt lat="44.59105" lon="1.45696">
        <ele>259.69</ele>
        <time>2020-09-28T14:36:03Z</time>
      </trkpt>
      <trkpt lat="44.59123" lon="1.45685">
        <ele>258.25</ele>
        <time>2020-09-28T14:36:29Z</time>
      </trkpt>
      <trkpt lat="44.59137" lon="1.45667">
        <ele>258.25</ele>
        <time>2020-09-28T14:36:43Z</time>
      </trkpt>
      <trkpt lat="44.59134" lon="1.45642">
        <ele>259.69</ele>
        <time>2020-09-28T14:36:59Z</time>
      </trkpt>
      <trkpt lat="44.59131" lon="1.45617">
        <ele>260.65</ele>
        <time>2020-09-28T14:37:18Z</time>
      </trkpt>
      <trkpt lat="44.59151" lon="1.4561">
        <ele>262.58</ele>
        <time>2020-09-28T14:37:39Z</time>
      </trkpt>
      <trkpt lat="44.59172" lon="1.45607">
        <ele>262.58</ele>
        <time>2020-09-28T14:38:03Z</time>
      </trkpt>
      <trkpt lat="44.59192" lon="1.45603">
        <ele>262.58</ele>
        <time>2020-09-28T14:38:27Z</time>
      </trkpt>
      <trkpt lat="44.59216" lon="1.4559">
        <ele>261.14</ele>
        <time>2020-09-28T14:38:55Z</time>
      </trkpt>
      <trkpt lat="44.59235" lon="1.45578">
        <ele>261.14</ele>
        <time>2020-09-28T14:39:18Z</time>
      </trkpt>
      <trkpt lat="44.59255" lon="1.45563">
        <ele>260.65</ele>
        <time>2020-09-28T14:39:38Z</time>
      </trkpt>
      <trkpt lat="44.59274" lon="1.45548">
        <ele>262.1</ele>
        <time>2020-09-28T14:40:00Z</time>
      </trkpt>
      <trkpt lat="44.59312" lon="1.45524">
        <ele>262.58</ele>
        <time>2020-09-28T14:40:48Z</time>
      </trkpt>
      <trkpt lat="44.59343" lon="1.45505">
        <ele>264.02</ele>
        <time>2020-09-28T14:41:37Z</time>
      </trkpt>
      <trkpt lat="44.5937" lon="1.45492">
        <ele>264.02</ele>
        <time>2020-09-28T14:42:03Z</time>
      </trkpt>
      <trkpt lat="44.59393" lon="1.45483">
        <ele>264.5</ele>
        <time>2020-09-28T14:42:21Z</time>
      </trkpt>
      <trkpt lat="44.59422" lon="1.45469">
        <ele>264.98</ele>
        <time>2020-09-28T14:42:43Z</time>
      </trkpt>
      <trkpt lat="44.59444" lon="1.45461">
        <ele>265.94</ele>
        <time>2020-09-28T14:43:04Z</time>
      </trkpt>
      <trkpt lat="44.59472" lon="1.45448">
        <ele>266.9</ele>
        <time>2020-09-28T14:43:29Z</time>
      </trkpt>
      <trkpt lat="44.59493" lon="1.4545">
        <ele>267.38</ele>
        <time>2020-09-28T14:43:50Z</time>
      </trkpt>
      <trkpt lat="44.59519" lon="1.45455">
        <ele>264.98</ele>
        <time>2020-09-28T14:44:14Z</time>
      </trkpt>
      <trkpt lat="44.59544" lon="1.45461">
        <ele>264.98</ele>
        <time>2020-09-28T14:44:39Z</time>
      </trkpt>
      <trkpt lat="44.59566" lon="1.45464">
        <ele>264.98</ele>
        <time>2020-09-28T14:44:59Z</time>
      </trkpt>
      <trkpt lat="44.5959" lon="1.45465">
        <ele>264.5</ele>
        <time>2020-09-28T14:45:20Z</time>
      </trkpt>
      <trkpt lat="44.59621" lon="1.45466">
        <ele>265.46</ele>
        <time>2020-09-28T14:45:45Z</time>
      </trkpt>
      <trkpt lat="44.59643" lon="1.45467">
        <ele>265.94</ele>
        <time>2020-09-28T14:46:07Z</time>
      </trkpt>
      <trkpt lat="44.59671" lon="1.45464">
        <ele>265.46</ele>
        <time>2020-09-28T14:46:30Z</time>
      </trkpt>
      <trkpt lat="44.59698" lon="1.45458">
        <ele>265.46</ele>
        <time>2020-09-28T14:47:15Z</time>
      </trkpt>
      <trkpt lat="44.5972" lon="1.45455">
        <ele>264.02</ele>
        <time>2020-09-28T14:47:39Z</time>
      </trkpt>
      <trkpt lat="44.59732" lon="1.45432">
        <ele>266.42</ele>
        <time>2020-09-28T14:48:09Z</time>
      </trkpt>
      <trkpt lat="44.59747" lon="1.45411">
        <ele>267.86</ele>
        <time>2020-09-28T14:48:30Z</time>
      </trkpt>
      <trkpt lat="44.59767" lon="1.45394">
        <ele>268.35</ele>
        <time>2020-09-28T14:48:50Z</time>
      </trkpt>
      <trkpt lat="44.59786" lon="1.45375">
        <ele>268.35</ele>
        <time>2020-09-28T14:49:13Z</time>
      </trkpt>
      <trkpt lat="44.59805" lon="1.45352">
        <ele>268.35</ele>
        <time>2020-09-28T14:49:32Z</time>
      </trkpt>
      <trkpt lat="44.59817" lon="1.45325">
        <ele>268.83</ele>
        <time>2020-09-28T14:49:52Z</time>
      </trkpt>
      <trkpt lat="44.59823" lon="1.45295">
        <ele>269.79</ele>
        <time>2020-09-28T14:50:13Z</time>
      </trkpt>
      <trkpt lat="44.59829" lon="1.45264">
        <ele>270.27</ele>
        <time>2020-09-28T14:50:32Z</time>
      </trkpt>
      <trkpt lat="44.59834" lon="1.45235">
        <ele>271.71</ele>
        <time>2020-09-28T14:50:51Z</time>
      </trkpt>
      <trkpt lat="44.59841" lon="1.45206">
        <ele>271.71</ele>
        <time>2020-09-28T14:51:10Z</time>
      </trkpt>
      <trkpt lat="44.59836" lon="1.45176">
        <ele>271.71</ele>
        <time>2020-09-28T14:51:32Z</time>
      </trkpt>
      <trkpt lat="44.59824" lon="1.4515">
        <ele>272.19</ele>
        <time>2020-09-28T14:51:50Z</time>
      </trkpt>
      <trkpt lat="44.59802" lon="1.45131">
        <ele>273.15</ele>
        <time>2020-09-28T14:52:12Z</time>
      </trkpt>
      <trkpt lat="44.59779" lon="1.45105">
        <ele>275.56</ele>
        <time>2020-09-28T14:52:38Z</time>
      </trkpt>
      <trkpt lat="44.59767" lon="1.45081">
        <ele>275.56</ele>
        <time>2020-09-28T14:52:59Z</time>
      </trkpt>
      <trkpt lat="44.59757" lon="1.45053">
        <ele>277</ele>
        <time>2020-09-28T14:53:19Z</time>
      </trkpt>
      <trkpt lat="44.59756" lon="1.45018">
        <ele>277.96</ele>
        <time>2020-09-28T14:53:42Z</time>
      </trkpt>
      <trkpt lat="44.59762" lon="1.44986">
        <ele>277.96</ele>
        <time>2020-09-28T14:54:02Z</time>
      </trkpt>
      <trkpt lat="44.59769" lon="1.44957">
        <ele>277.96</ele>
        <time>2020-09-28T14:54:20Z</time>
      </trkpt>
      <trkpt lat="44.59777" lon="1.4493">
        <ele>278.44</ele>
        <time>2020-09-28T14:54:39Z</time>
      </trkpt>
      <trkpt lat="44.59792" lon="1.4491">
        <ele>278.92</ele>
        <time>2020-09-28T14:54:58Z</time>
      </trkpt>
      <trkpt lat="44.59811" lon="1.44894">
        <ele>277.96</ele>
        <time>2020-09-28T14:55:17Z</time>
      </trkpt>
      <trkpt lat="44.59827" lon="1.44872">
        <ele>277</ele>
        <time>2020-09-28T14:55:36Z</time>
      </trkpt>
      <trkpt lat="44.59839" lon="1.44844">
        <ele>276.52</ele>
        <time>2020-09-28T14:55:56Z</time>
      </trkpt>
      <trkpt lat="44.5985" lon="1.4482">
        <ele>276.52</ele>
        <time>2020-09-28T14:56:14Z</time>
      </trkpt>
      <trkpt lat="44.59856" lon="1.44792">
        <ele>276.52</ele>
        <time>2020-09-28T14:56:31Z</time>
      </trkpt>
      <trkpt lat="44.59859" lon="1.44761">
        <ele>276.04</ele>
        <time>2020-09-28T14:56:50Z</time>
      </trkpt>
      <trkpt lat="44.59863" lon="1.4473">
        <ele>276.04</ele>
        <time>2020-09-28T14:57:10Z</time>
      </trkpt>
      <trkpt lat="44.59867" lon="1.44701">
        <ele>277.48</ele>
        <time>2020-09-28T14:57:29Z</time>
      </trkpt>
      <trkpt lat="44.59869" lon="1.44666">
        <ele>278.92</ele>
        <time>2020-09-28T14:57:51Z</time>
      </trkpt>
      <trkpt lat="44.59869" lon="1.44627">
        <ele>280.36</ele>
        <time>2020-09-28T14:58:18Z</time>
      </trkpt>
      <trkpt lat="44.59864" lon="1.44584">
        <ele>281.32</ele>
        <time>2020-09-28T14:58:44Z</time>
      </trkpt>
      <trkpt lat="44.59855" lon="1.44541">
        <ele>283.73</ele>
        <time>2020-09-28T14:59:13Z</time>
      </trkpt>
      <trkpt lat="44.59842" lon="1.44509">
        <ele>286.13</ele>
        <time>2020-09-28T14:59:38Z</time>
      </trkpt>
      <trkpt lat="44.59837" lon="1.44478">
        <ele>286.61</ele>
        <time>2020-09-28T14:59:58Z</time>
      </trkpt>
      <trkpt lat="44.59839" lon="1.44449">
        <ele>287.57</ele>
        <time>2020-09-28T15:00:16Z</time>
      </trkpt>
      <trkpt lat="44.59846" lon="1.44421">
        <ele>287.57</ele>
        <time>2020-09-28T15:00:33Z</time>
      </trkpt>
      <trkpt lat="44.59853" lon="1.44393">
        <ele>287.57</ele>
        <time>2020-09-28T15:00:49Z</time>
      </trkpt>
      <trkpt lat="44.59865" lon="1.4437">
        <ele>287.57</ele>
        <time>2020-09-28T15:01:05Z</time>
      </trkpt>
      <trkpt lat="44.59877" lon="1.44345">
        <ele>285.65</ele>
        <time>2020-09-28T15:01:27Z</time>
      </trkpt>
      <trkpt lat="44.59892" lon="1.44317">
        <ele>285.65</ele>
        <time>2020-09-28T15:01:45Z</time>
      </trkpt>
      <trkpt lat="44.59904" lon="1.44291">
        <ele>286.61</ele>
        <time>2020-09-28T15:02:04Z</time>
      </trkpt>
      <trkpt lat="44.59918" lon="1.44267">
        <ele>287.09</ele>
        <time>2020-09-28T15:02:23Z</time>
      </trkpt>
      <trkpt lat="44.59933" lon="1.4424">
        <ele>288.05</ele>
        <time>2020-09-28T15:02:43Z</time>
      </trkpt>
      <trkpt lat="44.5995" lon="1.44216">
        <ele>289.01</ele>
        <time>2020-09-28T15:03:02Z</time>
      </trkpt>
      <trkpt lat="44.59969" lon="1.44196">
        <ele>289.49</ele>
        <time>2020-09-28T15:03:21Z</time>
      </trkpt>
      <trkpt lat="44.59986" lon="1.44178">
        <ele>289.49</ele>
        <time>2020-09-28T15:03:37Z</time>
      </trkpt>
      <trkpt lat="44.60002" lon="1.44159">
        <ele>289.49</ele>
        <time>2020-09-28T15:03:55Z</time>
      </trkpt>
      <trkpt lat="44.60014" lon="1.44134">
        <ele>289.49</ele>
        <time>2020-09-28T15:04:13Z</time>
      </trkpt>
      <trkpt lat="44.60024" lon="1.44099">
        <ele>290.46</ele>
        <time>2020-09-28T15:04:35Z</time>
      </trkpt>
      <trkpt lat="44.60036" lon="1.44064">
        <ele>291.42</ele>
        <time>2020-09-28T15:04:57Z</time>
      </trkpt>
      <trkpt lat="44.60053" lon="1.44036">
        <ele>291.42</ele>
        <time>2020-09-28T15:05:18Z</time>
      </trkpt>
      <trkpt lat="44.60069" lon="1.44011">
        <ele>291.42</ele>
        <time>2020-09-28T15:05:36Z</time>
      </trkpt>
      <trkpt lat="44.60089" lon="1.43992">
        <ele>291.42</ele>
        <time>2020-09-28T15:05:55Z</time>
      </trkpt>
      <trkpt lat="44.60109" lon="1.43973">
        <ele>292.38</ele>
        <time>2020-09-28T15:06:15Z</time>
      </trkpt>
      <trkpt lat="44.60132" lon="1.43964">
        <ele>293.34</ele>
        <time>2020-09-28T15:06:36Z</time>
      </trkpt>
      <trkpt lat="44.60157" lon="1.43959">
        <ele>290.94</ele>
        <time>2020-09-28T15:06:59Z</time>
      </trkpt>
      <trkpt lat="44.6018" lon="1.43954">
        <ele>290.94</ele>
        <time>2020-09-28T15:07:16Z</time>
      </trkpt>
      <trkpt lat="44.60202" lon="1.43951">
        <ele>290.94</ele>
        <time>2020-09-28T15:08:36Z</time>
      </trkpt>
      <trkpt lat="44.60221" lon="1.4395">
        <ele>293.34</ele>
        <time>2020-09-28T15:09:27Z</time>
      </trkpt>
      <trkpt lat="44.60239" lon="1.43941">
        <ele>294.78</ele>
        <time>2020-09-28T15:10:11Z</time>
      </trkpt>
      <trkpt lat="44.60266" lon="1.43933">
        <ele>297.67</ele>
        <time>2020-09-28T15:10:44Z</time>
      </trkpt>
      <trkpt lat="44.60288" lon="1.43932">
        <ele>300.55</ele>
        <time>2020-09-28T15:11:08Z</time>
      </trkpt>
      <trkpt lat="44.6031" lon="1.43936">
        <ele>302.95</ele>
        <time>2020-09-28T15:11:32Z</time>
      </trkpt>
      <trkpt lat="44.6033" lon="1.43938">
        <ele>306.8</ele>
        <time>2020-09-28T15:11:56Z</time>
      </trkpt>
      <trkpt lat="44.60353" lon="1.43944">
        <ele>309.68</ele>
        <time>2020-09-28T15:12:19Z</time>
      </trkpt>
      <trkpt lat="44.60376" lon="1.43953">
        <ele>312.57</ele>
        <time>2020-09-28T15:12:53Z</time>
      </trkpt>
      <trkpt lat="44.60396" lon="1.43968">
        <ele>315.45</ele>
        <time>2020-09-28T15:13:23Z</time>
      </trkpt>
      <trkpt lat="44.60416" lon="1.43981">
        <ele>318.81</ele>
        <time>2020-09-28T15:13:53Z</time>
      </trkpt>
      <trkpt lat="44.60434" lon="1.43995">
        <ele>321.22</ele>
        <time>2020-09-28T15:14:20Z</time>
      </trkpt>
      <trkpt lat="44.60455" lon="1.44008">
        <ele>323.62</ele>
        <time>2020-09-28T15:14:49Z</time>
      </trkpt>
      <trkpt lat="44.60452" lon="1.4403">
        <ele>327.47</ele>
        <time>2020-09-28T15:15:14Z</time>
      </trkpt>
      <trkpt lat="44.6044" lon="1.44056">
        <ele>330.83</ele>
        <time>2020-09-28T15:15:41Z</time>
      </trkpt>
      <trkpt lat="44.60436" lon="1.44083">
        <ele>333.23</ele>
        <time>2020-09-28T15:16:07Z</time>
      </trkpt>
      <trkpt lat="44.60417" lon="1.44095">
        <ele>335.64</ele>
        <time>2020-09-28T15:16:32Z</time>
      </trkpt>
      <trkpt lat="44.60399" lon="1.4412">
        <ele>338.52</ele>
        <time>2020-09-28T15:17:04Z</time>
      </trkpt>
      <trkpt lat="44.60391" lon="1.44145">
        <ele>339.96</ele>
        <time>2020-09-28T15:17:25Z</time>
      </trkpt>
      <trkpt lat="44.60382" lon="1.44172">
        <ele>341.89</ele>
        <time>2020-09-28T15:17:46Z</time>
      </trkpt>
      <trkpt lat="44.60373" lon="1.44201">
        <ele>343.33</ele>
        <time>2020-09-28T15:18:08Z</time>
      </trkpt>
      <trkpt lat="44.60363" lon="1.44228">
        <ele>346.21</ele>
        <time>2020-09-28T15:18:28Z</time>
      </trkpt>
      <trkpt lat="44.60356" lon="1.44253">
        <ele>347.65</ele>
        <time>2020-09-28T15:18:46Z</time>
      </trkpt>
      <trkpt lat="44.60349" lon="1.44277">
        <ele>349.1</ele>
        <time>2020-09-28T15:19:05Z</time>
      </trkpt>
      <trkpt lat="44.60339" lon="1.44304">
        <ele>351.5</ele>
        <time>2020-09-28T15:19:24Z</time>
      </trkpt>
      <trkpt lat="44.60331" lon="1.44327">
        <ele>352.94</ele>
        <time>2020-09-28T15:19:41Z</time>
      </trkpt>
      <trkpt lat="44.60322" lon="1.4435">
        <ele>354.38</ele>
        <time>2020-09-28T15:19:58Z</time>
      </trkpt>
      <trkpt lat="44.60313" lon="1.44377">
        <ele>355.83</ele>
        <time>2020-09-28T15:20:17Z</time>
      </trkpt>
      <trkpt lat="44.60313" lon="1.44406">
        <ele>356.31</ele>
        <time>2020-09-28T15:20:35Z</time>
      </trkpt>
      <trkpt lat="44.60319" lon="1.44434">
        <ele>356.79</ele>
        <time>2020-09-28T15:20:58Z</time>
      </trkpt>
      <trkpt lat="44.60322" lon="1.44465">
        <ele>356.79</ele>
        <time>2020-09-28T15:21:20Z</time>
      </trkpt>
      <trkpt lat="44.60326" lon="1.44496">
        <ele>355.34</ele>
        <time>2020-09-28T15:21:39Z</time>
      </trkpt>
      <trkpt lat="44.60334" lon="1.44522">
        <ele>354.38</ele>
        <time>2020-09-28T15:21:56Z</time>
      </trkpt>
      <trkpt lat="44.60343" lon="1.44543">
        <ele>353.9</ele>
        <time>2020-09-28T15:22:12Z</time>
      </trkpt>
      <trkpt lat="44.60353" lon="1.44564">
        <ele>353.9</ele>
        <time>2020-09-28T15:22:50Z</time>
      </trkpt>
      <trkpt lat="44.60366" lon="1.44586">
        <ele>354.38</ele>
        <time>2020-09-28T15:23:10Z</time>
      </trkpt>
      <trkpt lat="44.60377" lon="1.44609">
        <ele>354.38</ele>
        <time>2020-09-28T15:23:27Z</time>
      </trkpt>
      <trkpt lat="44.60389" lon="1.44629">
        <ele>354.38</ele>
        <time>2020-09-28T15:23:43Z</time>
      </trkpt>
      <trkpt lat="44.60403" lon="1.44647">
        <ele>355.83</ele>
        <time>2020-09-28T15:23:59Z</time>
      </trkpt>
      <trkpt lat="44.60418" lon="1.44664">
        <ele>357.27</ele>
        <time>2020-09-28T15:24:15Z</time>
      </trkpt>
      <trkpt lat="44.60433" lon="1.4468">
        <ele>358.23</ele>
        <time>2020-09-28T15:24:31Z</time>
      </trkpt>
      <trkpt lat="44.6045" lon="1.44696">
        <ele>358.71</ele>
        <time>2020-09-28T15:24:46Z</time>
      </trkpt>
      <trkpt lat="44.60466" lon="1.44711">
        <ele>360.15</ele>
        <time>2020-09-28T15:25:02Z</time>
      </trkpt>
      <trkpt lat="44.60478" lon="1.44726">
        <ele>361.11</ele>
        <time>2020-09-28T15:25:32Z</time>
      </trkpt>
      <trkpt lat="44.60495" lon="1.44747">
        <ele>362.07</ele>
        <time>2020-09-28T15:25:50Z</time>
      </trkpt>
      <trkpt lat="44.60511" lon="1.44767">
        <ele>364</ele>
        <time>2020-09-28T15:26:10Z</time>
      </trkpt>
      <trkpt lat="44.60524" lon="1.44789">
        <ele>365.44</ele>
        <time>2020-09-28T15:26:33Z</time>
      </trkpt>
      <trkpt lat="44.60542" lon="1.44789">
        <ele>366.4</ele>
        <time>2020-09-28T15:27:05Z</time>
      </trkpt>
      <trkpt lat="44.6056" lon="1.44781">
        <ele>366.88</ele>
        <time>2020-09-28T15:27:24Z</time>
      </trkpt>
      <trkpt lat="44.60579" lon="1.44777">
        <ele>367.36</ele>
        <time>2020-09-28T15:27:42Z</time>
      </trkpt>
      <trkpt lat="44.60594" lon="1.4479">
        <ele>365.92</ele>
        <time>2020-09-28T15:28:09Z</time>
      </trkpt>
      <trkpt lat="44.60591" lon="1.44818">
        <ele>367.36</ele>
        <time>2020-09-28T15:28:27Z</time>
      </trkpt>
      <trkpt lat="44.60597" lon="1.44841">
        <ele>367.84</ele>
        <time>2020-09-28T15:28:44Z</time>
      </trkpt>
      <trkpt lat="44.60609" lon="1.44861">
        <ele>368.32</ele>
        <time>2020-09-28T15:29:01Z</time>
      </trkpt>
      <trkpt lat="44.60623" lon="1.44881">
        <ele>368.32</ele>
        <time>2020-09-28T15:29:17Z</time>
      </trkpt>
      <trkpt lat="44.60638" lon="1.44898">
        <ele>368.32</ele>
        <time>2020-09-28T15:29:34Z</time>
      </trkpt>
      <trkpt lat="44.60655" lon="1.44912">
        <ele>368.32</ele>
        <time>2020-09-28T15:29:52Z</time>
      </trkpt>
      <trkpt lat="44.60675" lon="1.44926">
        <ele>368.32</ele>
        <time>2020-09-28T15:30:11Z</time>
      </trkpt>
      <trkpt lat="44.60692" lon="1.44935">
        <ele>366.88</ele>
        <time>2020-09-28T15:30:29Z</time>
      </trkpt>
      <trkpt lat="44.60711" lon="1.44943">
        <ele>368.8</ele>
        <time>2020-09-28T15:30:45Z</time>
      </trkpt>
      <trkpt lat="44.60727" lon="1.44957">
        <ele>368.8</ele>
        <time>2020-09-28T15:31:03Z</time>
      </trkpt>
      <trkpt lat="44.60737" lon="1.44981">
        <ele>369.76</ele>
        <time>2020-09-28T15:31:23Z</time>
      </trkpt>
    </trkseg>
  </trk>
</gpx>